createdAt,value
2022-11-28T00:01:21.532Z,18.83
2022-11-28T00:04:10.007Z,19.17
2022-11-28T00:06:59.227Z,17.90
2022-11-28T00:09:47.006Z,16.73
2022-11-28T00:12:35.747Z,17.48
2022-11-28T00:15:23.448Z,16.58
2022-11-28T00:18:11.629Z,16.55
2022-11-28T00:21:05.864Z,16.77
2022-11-28T00:23:54.035Z,15.20
2022-11-28T00:26:42.111Z,15.43
2022-11-28T00:29:30.552Z,14.25
2022-11-28T00:32:18.150Z,13.07
2022-11-28T00:35:06.461Z,13.45
2022-11-28T00:37:54.114Z,12.15
2022-11-28T00:40:42.018Z,11.70
2022-11-28T00:43:30.230Z,11.70
2022-11-28T00:46:19.605Z,11.93
2022-11-28T00:49:07.371Z,13.20
2022-11-28T00:51:57.330Z,11.95
2022-11-28T00:57:35.058Z,10.52
2022-11-28T01:00:22.773Z,10.55
2022-11-28T01:03:10.518Z,9.98
2022-11-28T01:05:58.120Z,9.40
2022-11-28T01:08:45.938Z,12.25
2022-11-28T01:11:34.542Z,11.63
2022-11-28T01:14:26.348Z,10.77
2022-11-28T01:17:13.949Z,11.85
2022-11-28T01:20:01.831Z,11.35
2022-11-28T01:22:49.469Z,11.57
2022-11-28T01:25:37.287Z,11.57
2022-11-28T01:28:25.010Z,11.13
2022-11-28T01:31:17.217Z,12.07
2022-11-28T01:34:04.990Z,12.15
2022-11-28T01:36:52.832Z,12.32
2022-11-28T01:39:40.509Z,11.10
2022-11-28T01:42:28.252Z,10.70
2022-11-28T01:45:35.194Z,12.48
2022-11-28T01:48:29.588Z,12.75
2022-11-28T01:51:17.367Z,14.68
2022-11-28T01:54:05.389Z,14.52
2022-11-28T01:57:01.948Z,16.27
2022-11-28T01:59:56.022Z,17.90
2022-11-28T02:02:49.365Z,17.83
2022-11-28T02:05:37.458Z,17.83
2022-11-28T02:08:25.771Z,16.70
2022-11-28T02:11:31.889Z,16.83
2022-11-28T02:14:44.718Z,18.02
2022-11-28T02:17:38.037Z,18.65
2022-11-28T02:20:56.752Z,17.77
2022-11-28T02:24:08.902Z,17.73
2022-11-28T02:27:15.185Z,19.23
2022-11-28T02:30:12.183Z,16.27
2022-11-28T02:33:22.436Z,18.38
2022-11-28T02:36:16.309Z,17.30
2022-11-28T02:39:22.817Z,18.33
2022-11-28T02:42:30.502Z,15.30
2022-11-28T02:45:59.478Z,16.48
2022-11-28T02:48:51.974Z,16.42
2022-11-28T02:51:53.456Z,16.88
2022-11-28T02:54:43.561Z,19.87
2022-11-28T02:57:39.642Z,22.55
2022-11-28T03:00:32.241Z,21.35
2022-11-28T03:03:37.265Z,21.60
2022-11-28T03:06:33.413Z,19.63
2022-11-28T03:09:58.491Z,19.98
2022-11-28T03:12:55.045Z,22.90
2022-11-28T03:16:07.283Z,19.25
2022-11-28T03:19:01.189Z,16.13
2022-11-28T03:22:05.699Z,17.77
2022-11-28T03:25:15.593Z,18.30
2022-11-28T03:28:43.551Z,17.40
2022-11-28T03:31:39.285Z,18.85
2022-11-28T03:34:34.569Z,21.08
2022-11-28T03:37:32.496Z,22.40
2022-11-28T03:40:30.669Z,20.85
2022-11-28T03:43:28.255Z,21.15
2022-11-28T03:46:19.226Z,21.17
2022-11-28T03:49:09.785Z,22.02
2022-11-28T03:52:05.194Z,22.27
2022-11-28T03:55:06.307Z,21.80
2022-11-28T03:58:25.594Z,20.15
2022-11-28T04:01:48.212Z,22.30
2022-11-28T04:04:59.688Z,18.65
2022-11-28T04:08:02.675Z,21.77
2022-11-28T04:10:56.999Z,21.27
2022-11-28T04:13:58.419Z,21.38
2022-11-28T04:16:54.570Z,20.33
2022-11-28T04:19:46.896Z,18.42
2022-11-28T04:25:29.024Z,18.75
2022-11-28T04:28:22.582Z,20.30
2022-11-28T04:31:10.743Z,19.92
2022-11-28T04:34:03.050Z,19.58
2022-11-28T04:39:48.750Z,16.55
2022-11-28T04:42:41.737Z,20.20
2022-11-28T04:45:39.557Z,21.15
2022-11-28T04:48:33.984Z,21.27
2022-11-28T04:51:36.327Z,21.38
2022-11-28T04:54:32.976Z,18.80
2022-11-28T04:57:45.449Z,18.27
2022-11-28T05:00:38.754Z,18.48
2022-11-28T05:03:31.133Z,17.25
2022-11-28T05:06:27.940Z,18.05
2022-11-28T05:09:15.644Z,17.35
2022-11-28T05:12:04.172Z,16.98
2022-11-28T05:14:52.722Z,17.35
2022-11-28T05:17:42.440Z,17.73
2022-11-28T05:20:30.427Z,16.25
2022-11-28T05:23:21.102Z,16.48
2022-11-28T05:26:10.723Z,18.95
2022-11-28T05:28:59.028Z,18.08
2022-11-28T05:31:46.729Z,17.77
2022-11-28T05:34:34.507Z,16.60
2022-11-28T05:37:22.218Z,15.77
2022-11-28T05:40:10.178Z,13.07
2022-11-28T05:42:57.809Z,14.20
2022-11-28T05:45:46.229Z,13.77
2022-11-28T05:48:33.793Z,14.18
2022-11-28T05:51:21.488Z,12.50
2022-11-28T05:54:09.179Z,12.30
2022-11-28T05:56:57.059Z,12.60
2022-11-28T05:59:45.148Z,12.40
2022-11-28T06:02:36.387Z,13.30
2022-11-28T06:05:41.454Z,12.55
2022-11-28T06:08:30.448Z,11.80
2022-11-28T06:11:20.091Z,12.68
2022-11-28T06:14:07.897Z,12.05
2022-11-28T06:16:55.509Z,10.82
2022-11-28T06:19:43.420Z,12.80
2022-11-28T06:22:31.141Z,11.13
2022-11-28T06:25:19.080Z,11.48
2022-11-28T06:28:06.725Z,12.45
2022-11-28T06:30:54.430Z,13.20
2022-11-28T06:33:42.759Z,13.80
2022-11-28T06:36:31.405Z,12.15
2022-11-28T06:39:19.215Z,12.63
2022-11-28T06:42:06.904Z,14.88
2022-11-28T06:44:54.519Z,14.55
2022-11-28T06:47:42.264Z,13.20
2022-11-28T06:50:30.145Z,14.18
2022-11-28T06:53:18.148Z,14.05
2022-11-28T06:56:08.055Z,13.68
2022-11-28T06:58:57.938Z,14.75
2022-11-28T07:01:45.667Z,13.05
2022-11-28T07:04:33.890Z,14.65
2022-11-28T07:07:21.581Z,13.73
2022-11-28T07:10:09.730Z,14.82
2022-11-28T07:13:03.771Z,17.10
2022-11-28T07:15:53.129Z,16.90
2022-11-28T07:18:40.807Z,14.02
2022-11-28T07:21:29.324Z,14.20
2022-11-28T07:24:19.846Z,14.60
2022-11-28T07:27:07.592Z,14.25
2022-11-28T07:29:55.571Z,14.13
2022-11-28T07:32:43.257Z,14.05
2022-11-28T07:35:34.002Z,12.95
2022-11-28T07:38:21.693Z,14.38
2022-11-28T07:41:13.065Z,12.98
2022-11-28T07:44:03.078Z,15.20
2022-11-28T07:46:50.754Z,17.55
2022-11-28T07:49:41.837Z,12.50
2022-11-28T07:52:29.735Z,13.20
2022-11-28T07:55:17.594Z,13.20
2022-11-28T07:58:05.833Z,13.57
2022-11-28T08:00:54.157Z,13.57
2022-11-28T08:03:42.115Z,13.95
2022-11-28T08:06:31.414Z,14.35
2022-11-28T08:09:22.976Z,14.27
2022-11-28T08:12:10.721Z,15.48
2022-11-28T08:14:58.372Z,15.05
2022-11-28T08:17:46.168Z,14.38
2022-11-28T08:20:33.862Z,13.52
2022-11-28T08:23:21.615Z,13.57
2022-11-28T08:26:11.159Z,13.27
2022-11-28T08:29:00.590Z,14.45
2022-11-28T08:31:48.342Z,13.80
2022-11-28T08:34:36.241Z,15.68
2022-11-28T08:37:23.892Z,16.40
2022-11-28T08:40:11.999Z,14.80
2022-11-28T08:42:59.667Z,15.77
2022-11-28T08:45:48.741Z,12.88
2022-11-28T08:48:37.253Z,14.82
2022-11-28T08:51:26.036Z,14.20
2022-11-28T08:54:13.593Z,16.02
2022-11-28T08:57:02.328Z,16.67
2022-11-28T08:59:50.030Z,17.38
2022-11-28T09:02:37.753Z,17.52
2022-11-28T09:05:25.494Z,16.58
2022-11-28T09:08:14.754Z,16.92
2022-11-28T09:11:02.430Z,15.65
2022-11-28T09:13:50.599Z,15.02
2022-11-28T09:16:39.909Z,15.35
2022-11-28T09:19:27.803Z,13.75
2022-11-28T09:22:15.438Z,15.68
2022-11-28T09:25:03.232Z,13.88
2022-11-28T09:27:50.892Z,13.88
2022-11-28T09:30:38.721Z,16.27
2022-11-28T09:33:26.439Z,14.52
2022-11-28T09:36:17.164Z,14.13
2022-11-28T09:39:04.763Z,14.98
2022-11-28T09:42:07.390Z,12.60
2022-11-28T09:47:57.977Z,12.68
2022-11-28T09:50:47.221Z,11.35
2022-11-28T09:54:02.465Z,11.40
2022-11-28T09:56:50.809Z,11.80
2022-11-28T09:59:38.709Z,10.82
2022-11-28T10:02:56.300Z,12.40
2022-11-28T10:06:05.180Z,14.00
2022-11-28T10:09:07.948Z,9.90
2022-11-28T10:12:08.323Z,10.63
2022-11-28T10:15:13.190Z,11.52
2022-11-28T10:18:34.528Z,9.18
2022-11-28T10:21:37.266Z,9.25
2022-11-28T10:24:48.716Z,11.10
2022-11-28T10:27:36.577Z,11.43
2022-11-28T10:30:27.007Z,12.95
2022-11-28T10:33:27.660Z,10.65
2022-11-28T10:36:22.709Z,10.02
2022-11-28T10:39:13.790Z,9.90
2022-11-28T10:42:14.174Z,7.45
2022-11-28T10:45:32.709Z,7.30
2022-11-28T10:48:57.822Z,7.35
2022-11-28T10:52:04.599Z,7.50
2022-11-28T10:55:24.277Z,8.05
2022-11-28T10:58:21.186Z,7.15
2022-11-28T11:01:09.884Z,7.20
2022-11-28T11:03:57.573Z,7.05
2022-11-28T11:07:19.084Z,8.52
2022-11-28T11:10:21.402Z,7.10
2022-11-28T11:13:19.987Z,5.65
2022-11-28T11:16:11.621Z,5.07
2022-11-28T11:18:59.549Z,5.13
2022-11-28T11:22:01.043Z,4.68
2022-11-28T11:25:12.745Z,6.35
2022-11-28T11:28:04.494Z,6.17
2022-11-28T11:31:00.598Z,5.13
2022-11-28T11:33:51.575Z,6.57
2022-11-28T11:36:39.399Z,7.07
2022-11-28T11:39:26.997Z,5.90
2022-11-28T11:42:23.825Z,5.22
2022-11-28T11:45:34.380Z,5.88
2022-11-28T11:48:35.716Z,6.13
2022-11-28T11:51:27.718Z,5.00
2022-11-28T11:54:19.813Z,4.30
2022-11-28T11:57:32.145Z,4.20
2022-11-28T12:00:29.209Z,5.90
2022-11-28T12:03:41.354Z,5.53
2022-11-28T12:06:44.225Z,4.30
2022-11-28T12:12:24.002Z,3.60
2022-11-28T12:19:18.117Z,5.07
2022-11-28T12:22:39.988Z,4.57
2022-11-28T12:25:35.370Z,5.50
2022-11-28T12:29:00.361Z,4.55
2022-11-28T12:32:16.760Z,4.63
2022-11-28T12:35:30.174Z,3.97
2022-11-28T12:38:31.625Z,4.13
2022-11-28T12:41:31.961Z,4.45
2022-11-28T12:44:49.334Z,3.95
2022-11-28T12:47:46.625Z,5.35
2022-11-28T12:50:40.497Z,3.80
2022-11-28T12:53:49.002Z,4.03
2022-11-28T12:57:09.534Z,3.53
2022-11-28T13:00:18.578Z,3.90
2022-11-28T13:03:26.282Z,3.63
2022-11-28T13:06:16.871Z,5.28
2022-11-28T13:09:29.287Z,5.05
2022-11-28T13:12:48.669Z,5.38
2022-11-28T13:16:02.665Z,4.78
2022-11-28T13:19:05.278Z,5.95
2022-11-28T13:22:05.771Z,5.80
2022-11-28T13:25:21.112Z,4.85
2022-11-28T13:28:24.577Z,6.90
2022-11-28T13:31:30.172Z,6.65
2022-11-28T13:34:19.819Z,6.95
2022-11-28T13:40:52.205Z,6.32
2022-11-28T13:43:55.658Z,6.07
2022-11-28T13:46:46.265Z,9.15
2022-11-28T13:49:33.949Z,10.15
2022-11-28T13:52:29.579Z,8.95
2022-11-28T13:55:47.127Z,9.00
2022-11-28T13:58:41.881Z,7.75
2022-11-28T14:01:51.683Z,7.50
2022-11-28T14:04:44.709Z,7.78
2022-11-28T14:07:34.134Z,7.95
2022-11-28T14:11:08.730Z,10.63
2022-11-28T14:14:49.970Z,8.95
2022-11-28T14:17:55.889Z,8.00
2022-11-28T14:20:50.958Z,8.75
2022-11-28T14:23:59.506Z,10.63
2022-11-28T14:26:47.561Z,9.88
2022-11-28T14:29:40.380Z,11.27
2022-11-28T14:32:34.792Z,8.68
2022-11-28T14:35:55.112Z,11.43
2022-11-28T14:38:45.335Z,9.30
2022-11-28T14:42:02.925Z,9.25
2022-11-28T14:45:04.970Z,8.73
2022-11-28T14:48:23.423Z,10.02
2022-11-28T14:51:11.253Z,9.68
2022-11-28T14:53:59.191Z,10.18
2022-11-28T14:56:47.333Z,10.82
2022-11-28T14:59:38.701Z,10.35
2022-11-28T15:02:38.021Z,9.73
2022-11-28T15:05:40.331Z,9.60
2022-11-28T15:08:53.891Z,10.75
2022-11-28T15:12:05.207Z,9.57
2022-11-28T15:14:58.349Z,9.65
2022-11-28T15:20:44.753Z,11.80
2022-11-28T15:23:35.563Z,12.23
2022-11-28T15:26:30.438Z,22.92
2022-11-28T15:29:25.027Z,16.60
2022-11-28T15:32:14.896Z,17.15
2022-11-28T15:35:09.383Z,13.55
2022-11-28T15:38:02.663Z,15.30
2022-11-28T15:40:53.029Z,15.13
2022-11-28T15:43:45.773Z,17.90
2022-11-28T15:46:38.302Z,16.95
2022-11-28T15:49:38.810Z,17.35
2022-11-28T15:52:26.684Z,15.77
2022-11-28T15:55:16.514Z,15.02
2022-11-28T15:58:23.701Z,16.60
2022-11-28T16:01:25.224Z,15.80
2022-11-28T16:04:18.731Z,14.73
2022-11-28T16:07:07.053Z,14.60
2022-11-28T16:09:59.760Z,15.95
2022-11-28T16:12:47.983Z,15.25
2022-11-28T16:15:36.697Z,16.40
2022-11-28T16:18:27.283Z,14.10
2022-11-28T16:21:15.358Z,12.07
2022-11-28T16:24:04.461Z,14.07
2022-11-28T16:27:02.346Z,14.07
2022-11-28T16:29:50.186Z,14.25
2022-11-28T16:32:41.057Z,15.43
2022-11-28T16:35:40.870Z,18.75
2022-11-28T16:38:29.820Z,14.57
2022-11-28T16:41:22.601Z,17.25
2022-11-28T16:44:15.903Z,15.93
2022-11-28T16:47:03.791Z,13.73
2022-11-28T16:50:22.003Z,14.57
2022-11-28T16:53:41.572Z,12.95
2022-11-28T16:56:44.765Z,14.20
2022-11-28T16:59:32.437Z,14.18
2022-11-28T17:02:27.183Z,13.25
2022-11-28T17:05:14.975Z,14.80
2022-11-28T17:08:02.892Z,14.52
2022-11-28T17:10:50.668Z,16.23
2022-11-28T17:13:38.534Z,14.93
2022-11-28T17:16:27.641Z,16.77
2022-11-28T17:19:15.495Z,15.35
2022-11-28T17:22:03.711Z,15.43
2022-11-28T17:24:55.756Z,16.30
2022-11-28T17:27:44.003Z,14.52
2022-11-28T17:30:34.156Z,15.55
2022-11-28T17:33:24.570Z,16.55
2022-11-28T17:36:12.926Z,15.05
2022-11-28T17:39:05.046Z,15.65
2022-11-28T17:41:56.404Z,15.75
2022-11-28T17:44:44.169Z,16.10
2022-11-28T17:47:32.084Z,15.52
2022-11-28T17:50:22.573Z,17.27
2022-11-28T17:53:16.574Z,16.23
2022-11-28T17:56:04.577Z,16.27
2022-11-28T17:58:52.335Z,15.73
2022-11-28T18:01:41.310Z,17.58
2022-11-28T18:04:30.195Z,16.20
2022-11-28T18:07:36.642Z,16.80
2022-11-28T18:10:27.241Z,18.08
2022-11-28T18:13:16.893Z,17.33
2022-11-28T18:16:07.696Z,18.73
2022-11-28T18:18:55.530Z,18.08
2022-11-28T18:21:44.903Z,16.83
2022-11-28T18:24:33.717Z,18.65
2022-11-28T18:27:21.845Z,17.90
2022-11-28T18:30:10.067Z,17.58
2022-11-28T18:33:00.862Z,17.63
2022-11-28T18:35:48.469Z,16.50
2022-11-28T18:38:36.409Z,16.73
2022-11-28T18:41:25.130Z,16.88
2022-11-28T18:44:13.701Z,16.25
2022-11-28T18:47:01.285Z,15.23
2022-11-28T18:49:48.932Z,16.45
2022-11-28T18:52:36.971Z,15.18
2022-11-28T18:55:24.784Z,16.80
2022-11-28T18:58:12.568Z,16.73
2022-11-28T19:01:00.551Z,15.38
2022-11-28T19:03:53.150Z,16.70
2022-11-28T19:06:43.174Z,15.50
2022-11-28T19:09:31.174Z,15.10
2022-11-28T19:12:20.723Z,16.40
2022-11-28T19:15:12.007Z,15.75
2022-11-28T19:17:59.752Z,14.90
2022-11-28T19:20:48.267Z,15.55
2022-11-28T19:23:36.197Z,13.27
2022-11-28T19:26:26.613Z,14.32
2022-11-28T19:29:14.866Z,14.55
2022-11-28T19:32:03.422Z,14.88
2022-11-28T19:34:53.791Z,16.88
2022-11-28T19:37:42.348Z,17.95
2022-11-28T19:40:30.070Z,18.58
2022-11-28T19:43:18.028Z,21.85
2022-11-28T19:46:06.408Z,23.23
2022-11-28T19:48:54.688Z,21.52
2022-11-28T19:51:47.431Z,19.20
2022-11-28T19:54:53.322Z,16.58
2022-11-28T19:57:41.364Z,16.13
2022-11-28T20:00:29.042Z,20.65
2022-11-28T20:03:17.413Z,17.90
2022-11-28T20:06:30.443Z,18.13
2022-11-28T20:09:18.717Z,17.13
2022-11-28T20:12:07.822Z,17.88
2022-11-28T20:14:56.642Z,18.63
2022-11-28T20:17:45.168Z,18.23
2022-11-28T20:20:34.249Z,17.58
2022-11-28T20:23:21.988Z,19.15
2022-11-28T20:26:10.982Z,17.58
2022-11-28T20:28:58.714Z,15.02
2022-11-28T20:31:47.827Z,15.50
2022-11-28T20:34:38.489Z,15.68
2022-11-28T20:37:26.141Z,16.08
2022-11-28T20:40:14.301Z,14.45
2022-11-28T20:43:02.075Z,18.02
2022-11-28T20:45:49.883Z,16.77
2022-11-28T20:48:38.575Z,14.85
2022-11-28T20:51:28.170Z,14.63
2022-11-28T20:54:16.273Z,16.83
2022-11-28T21:00:12.356Z,15.82
2022-11-28T21:02:59.959Z,16.90
2022-11-28T21:05:47.944Z,16.13
2022-11-28T21:08:36.544Z,13.90
2022-11-28T21:11:55.221Z,13.65
2022-11-28T21:14:33.433Z,13.75
2022-11-28T21:17:21.634Z,12.60
2022-11-28T21:20:09.815Z,12.70
2022-11-28T21:22:57.561Z,11.77
2022-11-28T21:25:45.339Z,13.57
2022-11-28T21:28:34.706Z,11.60
2022-11-28T21:31:23.685Z,10.90
2022-11-28T21:34:14.702Z,10.38
2022-11-28T21:37:02.590Z,10.00
2022-11-28T21:39:50.303Z,10.15
2022-11-28T21:42:56.459Z,11.10
2022-11-28T21:45:44.147Z,9.80
2022-11-28T21:48:33.933Z,12.38
2022-11-28T21:51:24.969Z,11.07
2022-11-28T21:54:13.235Z,11.43
2022-11-28T21:57:00.916Z,10.80
2022-11-28T21:59:48.597Z,10.30
2022-11-28T22:02:36.370Z,10.60
2022-11-28T22:05:24.044Z,10.38
2022-11-28T22:08:12.046Z,9.60
2022-11-28T22:11:03.806Z,10.45
2022-11-28T22:13:53.062Z,11.40
2022-11-28T22:16:41.776Z,10.30
2022-11-28T22:19:29.691Z,10.98
2022-11-28T22:22:18.306Z,10.13
2022-11-28T22:25:06.539Z,9.38
2022-11-28T22:27:54.206Z,9.48
2022-11-28T22:30:41.909Z,11.38
2022-11-28T22:33:29.566Z,11.52
2022-11-28T22:36:20.268Z,9.27
2022-11-28T22:39:10.535Z,9.95
2022-11-28T22:41:58.568Z,9.57
2022-11-28T22:44:47.541Z,10.45
2022-11-28T22:47:35.314Z,9.75
2022-11-28T22:50:23.092Z,11.00
2022-11-28T22:53:10.925Z,10.90
2022-11-28T22:56:06.173Z,10.60
2022-11-28T22:58:54.042Z,8.80
2022-11-28T23:01:43.795Z,9.20
2022-11-28T23:04:32.145Z,9.57
2022-11-28T23:07:19.881Z,12.82
2022-11-28T23:10:08.849Z,12.55
2022-11-28T23:12:56.523Z,13.52
2022-11-28T23:15:48.445Z,12.23
2022-11-28T23:18:39.261Z,10.73
2022-11-28T23:21:30.625Z,11.90
2022-11-28T23:24:22.218Z,10.68
2022-11-28T23:27:10.628Z,11.20
2022-11-28T23:29:59.900Z,11.48
2022-11-28T23:32:47.884Z,10.68
2022-11-28T23:35:35.604Z,10.60
2022-11-28T23:38:23.458Z,10.18
2022-11-28T23:41:11.855Z,11.10
2022-11-28T23:44:00.503Z,10.82
2022-11-28T23:46:48.831Z,10.45
2022-11-28T23:49:36.477Z,10.70
2022-11-28T23:52:24.087Z,10.60
2022-11-28T23:55:11.793Z,10.55
2022-11-28T23:57:59.364Z,11.07
